Terminal Aerodrome Forecast
Issued by NWS

Home | Current Version | Previous Version | Text Only | Print | Product List | Glossary On
Versions: 1 2 3 4 5 6 7 8 9 10 11 12 13 14
000
FTUS44 KJAN 261125
TAFHKS
TAF
KHKS 261125Z 2612/2712 VRB03KT 6SM BR FEW010 SCT200
     FM261400 08003KT P6SM FEW020 SCT030 SCT250
     FM261900 08006KT P6SM VCTS SCT030 BKN050CB
     FM270000 05003KT P6SM FEW050 SCT250
     FM271000 VRB03KT 5SM BR FEW009 SCT250=

USA.gov is the U.S. government's official web portal to all federal, state and local government web resources and services.